createdAt,value
2023-03-06T00:00:37.238Z,4.47
2023-03-06T00:03:23.919Z,4.29
2023-03-06T00:06:08.902Z,4.39
2023-03-06T00:08:52.910Z,4.30
2023-03-06T00:11:37.210Z,4.28
2023-03-06T00:14:21.040Z,4.21
2023-03-06T00:17:05.226Z,4.33
2023-03-06T00:19:50.497Z,4.31
2023-03-06T00:22:34.649Z,4.40
2023-03-06T00:25:20.380Z,4.12
2023-03-06T00:28:04.338Z,4.23
2023-03-06T00:30:48.413Z,4.14
2023-03-06T00:33:32.490Z,4.11
2023-03-06T00:36:18.019Z,4.10
2023-03-06T00:39:02.303Z,4.22
2023-03-06T00:41:47.069Z,3.61
2023-03-06T00:44:31.854Z,4.08
2023-03-06T00:47:17.281Z,3.90
2023-03-06T00:50:01.570Z,4.11
2023-03-06T00:52:48.432Z,4.06
2023-03-06T00:55:33.664Z,3.95
2023-03-06T00:58:17.544Z,4.09
2023-03-06T01:01:01.362Z,4.12
2023-03-06T01:03:45.330Z,4.12
2023-03-06T01:06:30.410Z,4.13
2023-03-06T01:09:15.650Z,4.01
2023-03-06T01:12:00.211Z,3.98
2023-03-06T01:14:44.335Z,3.83
2023-03-06T01:17:28.324Z,3.79
2023-03-06T01:20:15.042Z,3.89
2023-03-06T01:22:59.423Z,3.26
2023-03-06T01:25:46.422Z,3.60
2023-03-06T01:28:31.053Z,3.37
2023-03-06T01:31:15.458Z,3.56
2023-03-06T01:33:59.564Z,3.39
2023-03-06T01:36:43.521Z,3.47
2023-03-06T01:39:29.073Z,3.42
2023-03-06T01:42:14.721Z,3.42
2023-03-06T01:45:02.330Z,3.35
2023-03-06T01:47:47.027Z,3.30
2023-03-06T01:50:31.097Z,3.47
2023-03-06T01:53:16.608Z,3.47
2023-03-06T01:56:00.857Z,3.37
2023-03-06T01:58:46.794Z,3.50
2023-03-06T02:01:31.884Z,3.30
2023-03-06T02:04:17.414Z,3.38
2023-03-06T02:07:05.042Z,3.46
2023-03-06T02:09:50.845Z,3.46
2023-03-06T02:12:35.321Z,3.46
2023-03-06T02:15:23.345Z,3.14
2023-03-06T02:18:07.322Z,3.64
2023-03-06T02:20:54.347Z,3.75
2023-03-06T02:23:52.488Z,3.66
2023-03-06T02:26:39.712Z,3.55
2023-03-06T02:29:26.557Z,3.57
2023-03-06T02:32:12.529Z,3.37
2023-03-06T02:34:58.832Z,3.25
2023-03-06T02:37:42.601Z,3.47
2023-03-06T02:40:26.899Z,3.21
2023-03-06T02:43:13.618Z,3.31
2023-03-06T02:45:57.867Z,3.19
2023-03-06T02:48:41.595Z,2.92
2023-03-06T02:51:25.836Z,3.05
2023-03-06T02:54:09.811Z,2.99
2023-03-06T02:56:54.007Z,3.15
2023-03-06T02:59:40.411Z,2.77
2023-03-06T03:02:25.334Z,2.43
2023-03-06T03:05:09.866Z,2.56
2023-03-06T03:07:59.085Z,2.40
2023-03-06T03:10:44.606Z,2.31
2023-03-06T03:13:30.948Z,2.25
2023-03-06T03:16:17.333Z,2.22
2023-03-06T03:19:01.916Z,2.22
2023-03-06T03:21:46.002Z,2.27
2023-03-06T03:24:30.289Z,2.40
2023-03-06T03:27:14.308Z,2.34
2023-03-06T03:29:59.323Z,2.47
2023-03-06T03:32:46.648Z,2.41
2023-03-06T03:35:30.647Z,2.51
2023-03-06T03:38:14.912Z,2.72
2023-03-06T03:40:59.205Z,2.56
2023-03-06T03:43:44.843Z,2.73
2023-03-06T03:46:29.535Z,2.75
2023-03-06T03:49:16.117Z,2.84
2023-03-06T03:52:01.560Z,2.44
2023-03-06T03:54:48.744Z,2.95
2023-03-06T03:57:33.014Z,3.15
2023-03-06T04:00:18.510Z,3.14
2023-03-06T04:03:12.636Z,3.12
2023-03-06T04:06:01.684Z,3.58
2023-03-06T04:08:45.832Z,3.72
2023-03-06T04:11:29.566Z,3.88
2023-03-06T04:14:13.892Z,4.03
2023-03-06T04:16:57.864Z,4.03
2023-03-06T04:19:42.371Z,3.89
2023-03-06T04:22:28.494Z,4.14
2023-03-06T04:25:12.859Z,4.27
2023-03-06T04:27:57.126Z,4.39
2023-03-06T04:30:41.334Z,4.50
2023-03-06T04:33:25.445Z,4.38
2023-03-06T04:36:24.856Z,4.50
2023-03-06T04:39:11.614Z,4.48
2023-03-06T04:41:55.766Z,4.48
2023-03-06T04:44:39.945Z,4.46
2023-03-06T04:47:24.085Z,4.59
2023-03-06T04:50:10.278Z,4.24
2023-03-06T04:52:54.574Z,4.83
2023-03-06T04:55:39.888Z,4.65
2023-03-06T04:58:25.704Z,4.72
2023-03-06T05:01:09.757Z,4.80
2023-03-06T05:03:53.687Z,5.15
2023-03-06T05:06:37.794Z,5.37
2023-03-06T05:09:21.669Z,5.41
2023-03-06T05:12:07.381Z,5.44
2023-03-06T05:14:51.280Z,5.66
2023-03-06T05:17:35.476Z,5.53
2023-03-06T05:20:19.552Z,5.53
2023-03-06T05:23:03.387Z,5.70
2023-03-06T05:25:47.052Z,5.58
2023-03-06T05:28:32.201Z,5.37
2023-03-06T05:31:15.995Z,4.97
2023-03-06T05:34:00.772Z,5.17
2023-03-06T05:36:44.979Z,5.20
2023-03-06T05:39:29.011Z,5.41
2023-03-06T05:42:13.074Z,5.10
2023-03-06T05:44:58.348Z,5.34
2023-03-06T05:47:42.250Z,5.29
2023-03-06T05:50:25.994Z,5.40
2023-03-06T05:53:09.811Z,5.09
2023-03-06T05:55:57.844Z,5.36
2023-03-06T05:58:41.751Z,5.47
2023-03-06T06:01:28.537Z,5.54
2023-03-06T06:04:12.529Z,5.66
2023-03-06T06:06:57.764Z,5.88
2023-03-06T06:09:41.911Z,6.06
2023-03-06T06:12:26.096Z,6.08
2023-03-06T06:15:10.505Z,6.29
2023-03-06T06:17:55.735Z,6.67
2023-03-06T06:20:39.740Z,7.08
2023-03-06T06:23:23.470Z,7.19
2023-03-06T06:26:09.727Z,7.47
2023-03-06T06:28:53.486Z,7.50
2023-03-06T06:31:37.913Z,7.25
2023-03-06T06:34:24.220Z,7.44
2023-03-06T06:37:08.361Z,7.44
2023-03-06T06:39:52.111Z,7.70
2023-03-06T06:42:39.901Z,7.60
2023-03-06T06:45:24.251Z,7.83
2023-03-06T06:48:08.369Z,7.53
2023-03-06T06:50:57.909Z,7.22
2023-03-06T06:53:41.711Z,7.64
2023-03-06T06:56:25.852Z,7.85
2023-03-06T06:59:16.556Z,7.35
2023-03-06T07:02:02.542Z,8.03
2023-03-06T07:05:02.135Z,8.07
2023-03-06T07:07:51.000Z,8.29
2023-03-06T07:10:35.700Z,8.81
2023-03-06T07:13:19.664Z,8.89
2023-03-06T07:16:03.526Z,8.78
2023-03-06T07:18:47.358Z,7.94
2023-03-06T07:21:31.423Z,7.97
2023-03-06T07:24:16.793Z,7.67
2023-03-06T07:27:00.640Z,7.32
2023-03-06T07:29:44.729Z,7.43
2023-03-06T07:32:28.779Z,7.26
2023-03-06T07:35:20.356Z,7.58
2023-03-06T07:38:04.818Z,8.05
2023-03-06T07:40:53.405Z,8.49
2023-03-06T07:43:37.160Z,8.70
2023-03-06T07:46:24.220Z,8.15
2023-03-06T07:49:08.056Z,8.25
2023-03-06T07:51:51.879Z,8.07
2023-03-06T07:54:35.643Z,8.08
2023-03-06T07:57:20.863Z,7.91
2023-03-06T08:00:06.212Z,7.81
2023-03-06T08:02:56.895Z,7.75
2023-03-06T08:05:40.801Z,7.72
2023-03-06T08:08:24.841Z,7.70
2023-03-06T08:11:09.933Z,7.60
2023-03-06T08:13:55.572Z,7.77
2023-03-06T08:16:39.492Z,7.98
2023-03-06T08:19:23.408Z,7.87
2023-03-06T08:22:07.830Z,8.01
2023-03-06T08:24:55.114Z,8.39
2023-03-06T08:27:39.082Z,8.48
2023-03-06T08:30:24.656Z,8.14
2023-03-06T08:33:08.590Z,8.20
2023-03-06T08:35:54.327Z,8.49
2023-03-06T08:38:38.086Z,8.71
2023-03-06T08:41:22.623Z,8.93
2023-03-06T08:44:06.958Z,8.77
2023-03-06T08:46:52.061Z,9.01
2023-03-06T08:49:36.266Z,9.13
2023-03-06T08:52:20.046Z,9.09
2023-03-06T08:55:04.411Z,9.00
2023-03-06T08:57:48.394Z,9.08
2023-03-06T09:00:32.323Z,9.29
2023-03-06T09:03:17.844Z,9.36
2023-03-06T09:06:01.667Z,9.50
2023-03-06T09:08:45.606Z,9.69
2023-03-06T09:11:29.950Z,9.61
2023-03-06T09:14:13.763Z,9.72
2023-03-06T09:16:57.790Z,9.41
2023-03-06T09:19:42.991Z,9.62
2023-03-06T09:22:26.917Z,9.55
2023-03-06T09:25:13.315Z,9.70
2023-03-06T09:28:10.479Z,9.89
2023-03-06T09:30:55.633Z,10.12
2023-03-06T09:33:39.863Z,10.35
2023-03-06T09:36:25.475Z,10.59
2023-03-06T09:39:10.113Z,10.79
2023-03-06T09:41:55.308Z,10.85
2023-03-06T09:44:43.354Z,10.87
2023-03-06T09:47:45.909Z,10.58
2023-03-06T09:50:41.777Z,10.29
2023-03-06T09:53:50.260Z,10.27
2023-03-06T09:56:36.908Z,10.42
2023-03-06T09:59:23.698Z,10.44
2023-03-06T10:02:17.079Z,10.27
2023-03-06T10:05:06.922Z,9.85
2023-03-06T10:07:56.128Z,10.07
2023-03-06T10:10:48.421Z,10.15
2023-03-06T10:13:40.340Z,10.11
2023-03-06T10:16:28.082Z,10.27
2023-03-06T10:19:16.059Z,10.03
2023-03-06T10:22:04.491Z,10.06
2023-03-06T10:24:55.859Z,10.24
2023-03-06T10:27:47.944Z,10.39
2023-03-06T10:30:42.601Z,10.34
2023-03-06T10:33:39.536Z,10.38
2023-03-06T10:36:27.170Z,10.26
2023-03-06T10:39:17.821Z,10.48
2023-03-06T10:42:01.997Z,10.22
2023-03-06T10:44:47.710Z,10.38
2023-03-06T10:47:35.375Z,10.50
2023-03-06T10:50:26.343Z,10.64
2023-03-06T10:53:21.752Z,10.88
2023-03-06T10:56:06.277Z,10.72
2023-03-06T10:59:10.717Z,11.07
2023-03-06T11:01:57.666Z,10.92
2023-03-06T11:04:47.158Z,11.02
2023-03-06T11:07:32.381Z,10.98
2023-03-06T11:10:19.451Z,11.10
2023-03-06T11:13:07.726Z,11.43
2023-03-06T11:15:59.419Z,11.72
2023-03-06T11:18:57.244Z,11.57
2023-03-06T11:21:41.562Z,11.87
2023-03-06T11:24:25.726Z,11.90
2023-03-06T11:27:22.769Z,12.15
2023-03-06T11:30:12.704Z,12.49
2023-03-06T11:33:00.726Z,12.51
2023-03-06T11:35:53.158Z,12.16
2023-03-06T11:38:44.036Z,12.28
2023-03-06T11:41:35.611Z,12.05
2023-03-06T11:44:27.259Z,11.49
2023-03-06T11:47:18.929Z,11.31
2023-03-06T11:50:16.374Z,11.33
2023-03-06T11:53:03.577Z,12.15
2023-03-06T11:55:57.156Z,12.18
2023-03-06T11:59:10.785Z,12.75
2023-03-06T12:02:05.217Z,12.71
2023-03-06T12:04:57.023Z,12.66
2023-03-06T12:07:50.786Z,12.71
2023-03-06T12:10:41.527Z,13.19
2023-03-06T12:13:42.091Z,13.76
2023-03-06T12:17:04.153Z,13.42
2023-03-06T12:19:59.780Z,13.74
2023-03-06T12:22:57.757Z,13.53
2023-03-06T12:25:57.846Z,13.51
2023-03-06T12:29:03.785Z,13.57
2023-03-06T12:31:59.521Z,13.28
2023-03-06T12:34:58.461Z,13.26
2023-03-06T12:37:52.076Z,13.11
2023-03-06T12:40:52.575Z,13.50
2023-03-06T12:44:01.744Z,13.48
2023-03-06T12:46:48.539Z,13.48
2023-03-06T12:49:38.830Z,13.53
2023-03-06T12:53:01.058Z,12.82
2023-03-06T12:55:43.405Z,12.96
2023-03-06T12:58:55.683Z,13.11
2023-03-06T13:01:48.845Z,13.17
2023-03-06T13:04:53.293Z,13.27
2023-03-06T13:08:00.074Z,13.04
2023-03-06T13:10:49.528Z,12.93
2023-03-06T13:13:35.438Z,12.71
2023-03-06T13:16:29.686Z,12.84
2023-03-06T13:19:19.563Z,12.94
2023-03-06T13:22:03.974Z,13.47
2023-03-06T13:24:49.469Z,13.18
2023-03-06T13:28:03.269Z,12.86
2023-03-06T13:30:47.458Z,12.73
2023-03-06T13:33:55.423Z,12.67
2023-03-06T13:36:39.906Z,12.70
2023-03-06T13:39:23.852Z,12.65
2023-03-06T13:42:08.287Z,12.96
2023-03-06T13:44:53.167Z,12.68
2023-03-06T13:48:10.668Z,12.61
2023-03-06T13:50:50.057Z,12.08
2023-03-06T13:54:04.958Z,12.54
2023-03-06T13:57:22.892Z,12.87
2023-03-06T14:00:29.513Z,12.81
2023-03-06T14:03:39.008Z,12.62
2023-03-06T14:06:59.054Z,12.44
2023-03-06T14:09:46.815Z,12.46
2023-03-06T14:12:34.973Z,12.69
2023-03-06T14:15:22.210Z,12.34
2023-03-06T14:18:08.432Z,12.60
2023-03-06T14:20:57.200Z,12.76
2023-03-06T14:23:43.556Z,12.68
2023-03-06T14:26:32.549Z,12.92
2023-03-06T14:29:22.242Z,12.73
2023-03-06T14:32:12.252Z,12.32
2023-03-06T14:34:56.510Z,12.44
2023-03-06T14:37:40.398Z,12.52
2023-03-06T14:40:31.175Z,12.48
2023-03-06T14:43:21.559Z,12.17
2023-03-06T14:46:07.401Z,12.24
2023-03-06T14:48:51.464Z,12.33
2023-03-06T14:51:41.911Z,12.03
2023-03-06T14:54:29.063Z,11.85
2023-03-06T14:57:16.568Z,12.13
2023-03-06T15:00:02.365Z,12.09
2023-03-06T15:02:48.133Z,11.99
2023-03-06T15:05:32.700Z,12.15
2023-03-06T15:08:21.850Z,12.11
2023-03-06T15:11:08.359Z,12.16
2023-03-06T15:14:02.761Z,12.09
2023-03-06T15:16:47.936Z,11.46
2023-03-06T15:19:40.649Z,12.04
2023-03-06T15:22:29.202Z,11.98
2023-03-06T15:25:26.803Z,11.81
2023-03-06T15:28:27.105Z,11.63
2023-03-06T15:31:23.012Z,11.63
2023-03-06T15:34:29.487Z,11.69
2023-03-06T15:37:29.022Z,11.56
2023-03-06T15:40:19.437Z,11.52
2023-03-06T15:43:03.889Z,11.33
2023-03-06T15:45:48.051Z,11.23
2023-03-06T15:48:32.060Z,11.16
2023-03-06T15:51:17.373Z,11.06
2023-03-06T15:54:11.828Z,10.94
2023-03-06T15:56:56.520Z,10.81
2023-03-06T15:59:44.200Z,10.81
2023-03-06T16:02:28.167Z,10.55
2023-03-06T16:05:16.392Z,10.60
2023-03-06T16:08:01.861Z,10.46
2023-03-06T16:10:46.957Z,10.33
2023-03-06T16:13:30.941Z,10.22
2023-03-06T16:16:19.452Z,9.99
2023-03-06T16:19:04.940Z,9.82
2023-03-06T16:21:49.042Z,9.77
2023-03-06T16:24:34.130Z,9.55
2023-03-06T16:27:19.892Z,9.18
2023-03-06T16:30:04.061Z,9.02
2023-03-06T16:32:48.148Z,8.79
2023-03-06T16:35:32.017Z,8.15
2023-03-06T16:38:16.844Z,8.10
2023-03-06T16:41:02.006Z,8.13
2023-03-06T16:43:45.989Z,7.95
2023-03-06T16:46:30.736Z,8.03
2023-03-06T16:49:22.510Z,8.00
2023-03-06T16:52:07.768Z,8.12
2023-03-06T16:54:51.527Z,7.93
2023-03-06T16:57:36.760Z,7.69
2023-03-06T17:00:22.415Z,7.83
2023-03-06T17:03:06.349Z,7.73
2023-03-06T17:05:50.597Z,7.33
2023-03-06T17:08:34.607Z,7.52
2023-03-06T17:11:20.401Z,6.99
2023-03-06T17:14:06.217Z,7.07
2023-03-06T17:16:50.060Z,7.27
2023-03-06T17:19:33.801Z,7.38
2023-03-06T17:22:18.141Z,7.36
2023-03-06T17:25:02.456Z,7.39
2023-03-06T17:27:47.214Z,7.41
2023-03-06T17:30:32.894Z,7.13
2023-03-06T17:33:16.760Z,7.16
2023-03-06T17:36:01.907Z,6.91
2023-03-06T17:38:46.341Z,6.44
2023-03-06T17:41:32.868Z,6.30
2023-03-06T17:44:17.246Z,6.68
2023-03-06T17:47:02.501Z,6.49
2023-03-06T17:49:46.836Z,6.59
2023-03-06T17:52:30.804Z,6.81
2023-03-06T17:55:14.639Z,6.67
2023-03-06T17:57:58.431Z,6.56
2023-03-06T18:00:42.693Z,6.69
2023-03-06T18:03:28.225Z,6.48
2023-03-06T18:06:12.453Z,6.53
2023-03-06T18:08:56.339Z,6.32
2023-03-06T18:11:40.123Z,6.07
2023-03-06T18:14:24.692Z,6.01
2023-03-06T18:17:09.045Z,5.92
2023-03-06T18:19:56.830Z,6.33
2023-03-06T18:22:40.709Z,6.51
2023-03-06T18:25:24.583Z,6.51
2023-03-06T18:28:08.535Z,6.44
2023-03-06T18:30:52.512Z,6.48
2023-03-06T18:33:36.768Z,6.24
2023-03-06T18:36:24.265Z,6.45
2023-03-06T18:39:10.039Z,6.59
2023-03-06T18:41:54.029Z,6.62
2023-03-06T18:44:37.815Z,6.79
2023-03-06T18:47:21.893Z,6.46
2023-03-06T18:50:06.402Z,6.74
2023-03-06T18:52:52.142Z,6.42
2023-03-06T18:55:36.019Z,6.01
2023-03-06T18:58:20.038Z,6.01
2023-03-06T19:01:07.804Z,5.95
2023-03-06T19:03:51.805Z,5.88
2023-03-06T19:06:37.983Z,5.71
2023-03-06T19:09:23.403Z,5.45
2023-03-06T19:12:08.907Z,5.54
2023-03-06T19:14:52.918Z,5.47
2023-03-06T19:17:37.856Z,5.31
2023-03-06T19:20:21.912Z,5.47
2023-03-06T19:23:05.679Z,5.56
2023-03-06T19:25:58.791Z,5.57
2023-03-06T19:28:43.961Z,5.73
2023-03-06T19:31:29.476Z,5.78
2023-03-06T19:34:13.405Z,5.48
2023-03-06T19:36:57.392Z,5.68
2023-03-06T19:39:41.698Z,5.63
2023-03-06T19:42:27.337Z,5.85
2023-03-06T19:45:11.700Z,5.83
2023-03-06T19:48:00.822Z,5.69
2023-03-06T19:50:44.824Z,5.90
2023-03-06T19:53:28.528Z,5.81
2023-03-06T19:56:17.195Z,5.40
2023-03-06T19:59:02.732Z,5.50
2023-03-06T20:01:46.591Z,5.83
2023-03-06T20:04:33.015Z,5.97
2023-03-06T20:07:16.985Z,6.13
2023-03-06T20:10:02.704Z,6.24
2023-03-06T20:12:46.949Z,5.87
2023-03-06T20:15:35.172Z,5.56
2023-03-06T20:18:19.240Z,5.55
2023-03-06T20:21:05.187Z,5.88
2023-03-06T20:23:51.097Z,5.96
2023-03-06T20:26:36.858Z,5.64
2023-03-06T20:29:21.096Z,5.66
2023-03-06T20:32:06.561Z,5.61
2023-03-06T20:34:50.423Z,5.50
2023-03-06T20:37:34.391Z,5.59
2023-03-06T20:40:18.492Z,5.74
2023-03-06T20:43:02.330Z,5.71
2023-03-06T20:45:57.400Z,6.10
2023-03-06T20:48:43.483Z,6.06
2023-03-06T20:51:30.425Z,5.89
2023-03-06T20:54:17.290Z,5.84
2023-03-06T20:57:01.317Z,6.00
2023-03-06T20:59:45.161Z,6.12
2023-03-06T21:02:28.895Z,6.26
2023-03-06T21:05:14.422Z,6.14
2023-03-06T21:07:58.141Z,6.16
2023-03-06T21:10:41.846Z,6.25
2023-03-06T21:13:25.802Z,6.01
2023-03-06T21:16:12.333Z,6.15
2023-03-06T21:18:57.107Z,6.31
2023-03-06T21:21:42.424Z,6.33
2023-03-06T21:24:26.218Z,6.24
2023-03-06T21:27:10.062Z,6.22
2023-03-06T21:29:53.783Z,6.30
2023-03-06T21:32:37.720Z,6.37
2023-03-06T21:35:21.791Z,6.17
2023-03-06T21:38:07.030Z,6.00
2023-03-06T21:40:50.786Z,5.98
2023-03-06T21:43:34.512Z,6.02
2023-03-06T21:46:18.356Z,6.16
2023-03-06T21:49:04.545Z,6.32
2023-03-06T21:51:48.367Z,5.92
2023-03-06T21:54:33.495Z,5.79
2023-03-06T21:57:17.288Z,5.43
2023-03-06T22:00:01.121Z,5.58
2023-03-06T22:02:45.369Z,5.50
2023-03-06T22:05:29.105Z,5.46
2023-03-06T22:08:12.823Z,5.47
2023-03-06T22:10:58.031Z,5.46
2023-03-06T22:13:42.470Z,5.60
2023-03-06T22:16:26.457Z,4.12
2023-03-06T22:19:10.301Z,5.07
2023-03-06T22:21:53.960Z,5.47
2023-03-06T22:24:37.746Z,5.80
2023-03-06T22:27:22.835Z,5.90
2023-03-06T22:30:07.759Z,5.85
2023-03-06T22:32:53.683Z,5.61
2023-03-06T22:35:37.487Z,4.63
2023-03-06T22:38:21.206Z,5.72
2023-03-06T22:41:05.644Z,5.87
2023-03-06T22:43:50.852Z,5.84
2023-03-06T22:46:34.709Z,5.80
2023-03-06T22:49:19.114Z,5.87
2023-03-06T22:52:02.849Z,5.93
2023-03-06T22:54:46.913Z,5.81
2023-03-06T22:57:31.043Z,5.90
2023-03-06T23:00:17.109Z,5.59
2023-03-06T23:03:01.280Z,5.72
2023-03-06T23:05:45.088Z,5.75
2023-03-06T23:08:28.890Z,5.63
2023-03-06T23:11:14.172Z,5.56
2023-03-06T23:14:17.831Z,5.65
2023-03-06T23:17:21.604Z,5.57
2023-03-06T23:20:24.435Z,5.43
2023-03-06T23:23:27.096Z,5.59
2023-03-06T23:26:14.648Z,5.45
2023-03-06T23:28:59.367Z,5.50
2023-03-06T23:31:43.189Z,5.48
2023-03-06T23:34:28.631Z,5.17
2023-03-06T23:37:12.393Z,5.12
2023-03-06T23:39:56.492Z,5.25
2023-03-06T23:42:40.481Z,5.18
2023-03-06T23:45:24.690Z,4.92
2023-03-06T23:48:09.278Z,5.05
2023-03-06T23:50:54.471Z,5.33
2023-03-06T23:53:38.108Z,5.14
2023-03-06T23:56:21.878Z,5.36
2023-03-06T23:59:05.774Z,5.12
